Timeline UpdatesTrip UpdatesNews PostsPvt Posts♥♥Travel TipsAdmin PostsConv PostsFollowed PostsChat RequestsBlog PostsPNR Posts

Disclaimer
Search
 
 
Fri Dec 19, 2014 22:00:49 ISTHomeTrainsΣChainsAtlasPNRForumGalleryNewsFAQTripsMembersLoginFeedback
PNR Super Search

Ticket PNR Status Inquiry - PNR: 860-xxxxxxx (E-Ticket)

OLD STATUS

Status Last Updated on: Mar 05 2012 (8:23AM) IST

Date of Journey: Fri Mar 09, 2012   Class: AC 2-tier - 2A   (Total Seats available for this Class/Quota: Avbl >40)
Passenger 1: Can/Mod (Booking Status: W/L 16,GNWL)
Chart NOT Prepared

Ahmedabad- Howrah SF Express/12833

Travel Time: 33h 35m    55 halts    Distance: 1859 km    Avg Speed: 55 km/hr
Type: SuperFast
Zone: SER/South Eastern
Departs @ 03:55 (Avg 10m late)
Platform# 1
SMTWTFS
Surat/ST 
Arrives @ 13:30 +1 night (Avg 10m late)
Platform# 17
SMTWTFS
Kolkata Howrah Junction/HWH 

55 halts. 269 intermediate Stations between Surat and Kolkata Howrah Junction

Show ALL intermediate Stations  Show Old Time-Table

#TrkCodeStation NameX/OArrivesAvgDepartsAvgHaltPFDay#KmSpeedElevZoneAddress
1/==/ADIAhmedabad Junction (12)  -23:55+071-229.62451mWRAhmedabad, Gujarat
2/==/MANManinagar (2)X  00:03+000:05+02m12-226.46950mWRAhmadabad, Gujarat
3/==/NDNadiad Junction (4)X  00:42+500:44+62m12-184.06237mWRNadiad, Gujarat
4/==/ANNDAnand Junction (6)X  01:02+701:04+122m12-165.64944mWRAnand, Gujarat
5/==/BRCVadodara Junction (7)  01:48+901:55+117m12-129.88836mWRVadodara 390005, Gujarat
6/==/BHBharuch Junction (5)  02:43+1302:45+142m42-59.35919mWRBharuch, Gujarat
7/==/STSurat (4)»X  03:45+1003:55+1010m120.03419mWRSurat 395001, Gujarat
8/==/UDNUdhna Junction (3)  04:02+1404:04+172m324.06316mWRUdhna 394210, Gujarat
9%==%BIYBardoli (2)  04:30+2904:32+302m1231.25935mWRNear Bardoli Sugar Factory Bardoli, Gujarat
10%==%MIDMadhi (1)X  04:47+3404:49+342m1246.05345mWRMadhi, Gujarat
11%==/VYAVyara (2)X  05:06+3705:08+372m2261.05590mWRVyara, Gujarat
12/==/NWUNavapur (2)X  05:54+3205:56+322m--2102.949124mWRNavapur, Gujarat
13/-=%NDBNandurbar (3)  07:07+2207:15+228m22160.846203mWRNandurbar, Maharashtra
14/-=%DDEDondaicha (2)  08:00+1308:02+142m12195.245163mWRDondaicha, Maharashtra
15%==%SNKSindkheda (1)  08:28+1008:30+112m12214.653178mWRState Highway 11, Maharashtra
16/==%ANAmalner (2)  09:17+409:20+63m12256.262188mWRAmalner, Maharashtra
17%==/DXGDharangaon (2)  09:44+609:46+72m12281.136217mWRDharangaon, Maharashtra
18%==%JLJalgaon Junction (4)X  10:38 10:35+710:40+82 5m12310.872213mCRJalgaon 425001, Maharashtra
19/==/BSLBhusaval Junction (8)  11:05 11:00+1411:20 11:10+1715 10m12334.970208mCRBhusaval 425201, Maharashtra
20/==/MKUMalkapur (2)X  12:06 11:53+2212:08 11:55+222m22384.873252mCRMalkapur, Maharashtra
21/==/NNNandura (2)  12:28 12:18+2212:30 12:20+222m22412.792267mCRNandura, Maharashtra
22/==/JMJalamb Junction (3)  12:38 12:28+2512:40 12:30+252m12424.993259mCRJalamb, Maharashtra
23/==/SEGShegaon (2)X  12:48 12:38+2812:50 12:40+282m22437.389281mCRShegaon 444203, Maharashtra
24/==/AKAkola Junction (7)  13:15 13:05+3513:20 13:10+345m22474.580284mCRAkola-444001, Maharashtra
25/==/MZRMurtizapur (3)O  13:58 13:38+3814:00 13:40+382m12511.736303mCRMurtajapur, Maharashtra
26/==/BDBadnera Junction (4)  14:55 14:50+715:00 14:55+85m22553.569335mCRBadnera (Amravati) 444701, Maharashtra
27/==/CNDChandur (2)  15:20+1315:22+142m12582.277331mCRAmravati Distt, Maharashtra
28/==/DMNDhamangaon (2)X  15:35+1515:37+152m22598.980300mCRDhamangaon, Maharashtra
29/==/PLOPulgaon Junction (3)X  15:52+1715:54+172m12618.968273mCRPulgaon, Maharashtra
30/==/WRWardha Junction (4)  16:20+1416:23+143m32648.475289mCRWardha 442001, Maharashtra
31/==/AJNIAjni (3)  17:24+717:26+82m12724.38310mCRNagpur 440003, Maharashtra
32/==/NGPNagpur Junction (8)X  17:50+118:00+310m12727.348314mCRNagpur 440001, Maharashtra
33/==/KPKamptee (3)X  18:18+1518:20+152m12741.696290mSECRKamptee, Maharashtra
34/==/BRDBhandara Road (3)X  18:50+1918:52+192m12789.677266mSECRState Highway 252 Bhandara District, Maharashtra
35/==/TMRTumsar Road (5)X  19:06+1919:08+192m22807.581267mSECRDistt. Bhandara, Maharashtra
36/==/TROTirora (3)  19:23+2119:25+212m12827.957282mSECRDist Gondia, Maharashtra
37/==/GGondia Junction (7)X  19:56+1619:58+172m22857.291316mSECRGondia 441601, Maharashtra
38/==/AGNAmgaon (2)X  20:13+2120:15+212m12880.072317mSECRGondia, Maharashtra
39/==/DGGDongargarh (2)  20:57+2120:59+212m12930.486353mSECRDongargarh, Chhattisgarh
40/==/RJNRaj Nandgaon (3)X  21:21+1921:23+192m12962.039313mSECRRajnandgaon, Chhattisgarh
41/==/DURGDurg Junction (6)  22:10+622:15+85m32992.449299mSECRPh: 91-788-2322059, Chhattisgarh
42/==/BPHBBhilai Power House (3)X  22:24 22:26+022:26 22:28+02m121001.462312mSECRBhilai, Chhattisgarh
43/==/RRaipur Junction (6)X  22:55+923:05+810m621029.474297mSECRRaipur, Chhattisgarh
44/==/TLDTilda (3)  23:34 23:36+1423:36 23:38+142m--21067.687293mSECRBanjari Rd, Chhattisgarh
45/==/BYTBhatapara (4)  23:54 23:56+1523:56 23:58+152m--21093.649270mSECRBanjari Road, Chhattisgarh
46/==/BSPBilaspur Junction (8)X  00:55+501:10+1315m231139.878271mSECRBilaspur, Chhattisgarh
47/==/AKTAkaltara (4)  01:31+1601:33+162m331167.069284mSECRDist. Janjgir Champa, Chhattisgarh
48/==/NIANaila (3)X  01:46+1501:48+162m231182.054273mSECRJanjgir, Chhattisgarh
49/==/CPHChampa Junction (3)X  02:00+1602:03+243m131192.885264mSECRNational Highway 200 (07819-245767), Chhattisgarh
50/==/BUABaradwarX  02:13 02:14+2602:15 02:16+272m131208.391260mSECRJanjgir-Champa, Chhattisgarh
51/==/KHSKharsia  02:36+3002:38+302m131238.685259mSECRNational Highway 200, Chhattisgarh
52/==/RIGRaigarh (3)XO  03:02+3503:07+345m131272.690220mSECRRaigarh, Chhattisgarh
53/==/BPHBelpahar (2)  03:41+4203:43+422m--31323.653235mSECRBelpahar, Odisha
54/==/BRJNBrajrajnagarX  03:53+4203:55+412m--31332.611212mSECRBrajrajnagar, Odisha
55/==/JSGJharsuguda Junction (5)X  05:00+305:02+72m231344.281236mSERJharsuguda, Odisha
56/==/BMBBamra (3)  05:29+805:31+102m--31380.780259mSERBamra PH : 06642-229268, Odisha
57/==/GPRaj Gangpur (3)X  05:57+1605:59+162m231415.454237mSERRaj Ganpur, Odisha
58/==/ROURourkela Junction (5)  06:32+1106:47+1115m531445.275198mSERRourkela, Odisha
59/==/CKPChakradharpur (3)X  08:08+1308:15+137m231546.253235mSERChakradharpur (West Singhbhum), Jharkhand
60/==/TATATatanagar Junction (5)  09:20 09:25+209:35+515 10m531608.579164mSER91-657-2423026, Jharkhand
61/==/KGPKharagpur Junction (10)  11:17+1511:22+165m631743.67342mSERDist: West Medinipur, West Bengal
62/==/SRCKolkata Santragachi Junction (6)  12:50 12:51+1312:52 12:53+132m631851.2127mSERDist: Howrah - 711104, West Bengal
63/==/HWHKolkata Howrah Junction (23)•  13:30+10-1731858.6-10mERHowrah 711101, West Bengal
Scroll to Top
Scroll to Bottom


Go to Mobile site